createdAt,value
2023-02-27T00:01:00.411Z,100892.38
2023-02-27T00:06:01.799Z,100894.31
2023-02-27T00:11:03.195Z,100887.75
2023-02-27T00:16:04.941Z,100890.66
2023-02-27T00:21:06.316Z,100884.53
2023-02-27T00:26:07.710Z,100897.03
2023-02-27T00:31:09.235Z,100892.81
2023-02-27T00:36:10.673Z,100892.13
2023-02-27T00:41:12.057Z,100893.59
2023-02-27T00:46:13.476Z,100894.09
2023-02-27T00:51:14.948Z,100893.03
2023-02-27T00:56:16.340Z,100893.59
2023-02-27T01:01:17.836Z,100899.69
2023-02-27T01:06:19.266Z,100898.72
2023-02-27T01:11:20.656Z,100896.38
2023-02-27T01:16:22.074Z,100895.47
2023-02-27T01:21:23.580Z,100886.84
2023-02-27T01:26:25.100Z,100888.41
2023-02-27T01:31:26.804Z,100880.44
2023-02-27T01:36:28.310Z,100885.81
2023-02-27T01:41:29.738Z,100878.03
2023-02-27T01:46:31.514Z,100885.91
2023-02-27T01:51:36.226Z,100887.34
2023-02-27T01:56:37.644Z,100885.81
2023-02-27T02:01:39.186Z,100896.72
2023-02-27T02:06:41.905Z,100898.03
2023-02-27T02:11:43.975Z,100900.63
2023-02-27T02:16:59.351Z,100902.47
2023-02-27T02:22:19.464Z,100907.25
2023-02-27T02:27:42.595Z,100903.94
2023-02-27T02:33:10.340Z,100906.31
2023-02-27T02:38:26.774Z,100908.38
2023-02-27T02:43:41.239Z,100919.72
2023-02-27T02:48:54.577Z,100919.91
2023-02-27T02:54:07.209Z,100923.53
2023-02-27T02:59:30.616Z,100921.78
2023-02-27T03:04:45.006Z,100925.78
2023-02-27T03:09:49.857Z,100932.13
2023-02-27T03:15:08.755Z,100944.34
2023-02-27T03:20:17.469Z,100928.94
2023-02-27T03:25:18.834Z,100931.84
2023-02-27T03:30:30.658Z,100940.13
2023-02-27T03:35:38.856Z,100939.47
2023-02-27T03:40:45.692Z,100944.91
2023-02-27T03:46:22.494Z,100953.72
2023-02-27T03:51:24.530Z,100951.84
2023-02-27T03:56:29.168Z,100952.31
2023-02-27T04:01:30.728Z,100951.66
2023-02-27T04:06:50.620Z,100954.78
2023-02-27T04:12:10.072Z,100959.00
2023-02-27T04:17:22.965Z,100954.41
2023-02-27T04:22:36.312Z,100959.00
2023-02-27T04:27:48.106Z,100968.91
2023-02-27T04:32:53.229Z,100976.69
2023-02-27T04:38:03.975Z,100971.22
2023-02-27T04:43:06.043Z,100957.97
2023-02-27T04:48:19.723Z,100958.34
2023-02-27T04:53:30.351Z,100970.38
2023-02-27T04:58:34.337Z,100974.16
2023-02-27T05:03:38.682Z,100979.00
2023-02-27T05:08:47.224Z,100986.94
2023-02-27T05:13:54.243Z,100988.91
2023-02-27T05:18:55.645Z,101003.84
2023-02-27T05:24:18.787Z,101014.09
2023-02-27T05:29:36.466Z,101020.59
2023-02-27T05:34:42.972Z,101012.63
2023-02-27T05:39:44.382Z,101006.97
2023-02-27T05:44:49.683Z,101016.38
2023-02-27T05:49:57.033Z,101024.13
2023-02-27T05:55:08.348Z,101022.69
2023-02-27T06:00:15.551Z,101033.84
2023-02-27T06:05:18.101Z,101044.16
2023-02-27T06:10:19.632Z,101047.47
2023-02-27T06:15:21.048Z,101052.75
2023-02-27T06:20:22.416Z,101060.75
2023-02-27T06:25:23.884Z,101059.69
2023-02-27T06:30:25.275Z,101064.06
2023-02-27T06:35:27.151Z,101055.00
2023-02-27T06:40:28.558Z,101074.38
2023-02-27T06:45:29.966Z,101065.31
2023-02-27T06:50:31.331Z,101065.91
2023-02-27T06:55:33.608Z,101060.19
2023-02-27T07:00:35.011Z,101065.91
2023-02-27T07:05:36.406Z,101069.31
2023-02-27T07:10:38.813Z,101073.25
2023-02-27T07:15:40.260Z,101069.88
2023-02-27T07:20:41.676Z,101070.69
2023-02-27T07:25:43.044Z,101063.63
2023-02-27T07:30:45.226Z,101076.22
2023-02-27T07:35:46.693Z,101078.09
2023-02-27T07:40:48.379Z,101078.69
2023-02-27T07:45:50.962Z,101071.38
2023-02-27T07:50:52.374Z,101071.38
2023-02-27T07:55:53.751Z,101075.88
2023-02-27T08:00:55.143Z,101079.44
2023-02-27T08:05:56.533Z,101087.66
2023-02-27T08:10:58.440Z,101093.75
2023-02-27T08:15:59.865Z,101098.75
2023-02-27T08:21:01.332Z,101105.03
2023-02-27T08:26:02.907Z,101107.97
2023-02-27T08:31:04.363Z,101108.03
2023-02-27T08:36:06.163Z,101114.38
2023-02-27T08:41:07.643Z,101117.63
2023-02-27T08:46:09.118Z,101134.00
2023-02-27T08:51:10.536Z,101130.44
2023-02-27T08:56:11.919Z,101128.22
2023-02-27T09:01:13.342Z,101126.28
2023-02-27T09:06:14.770Z,101134.41
2023-02-27T09:11:16.146Z,101133.13
2023-02-27T09:16:20.786Z,101131.88
2023-02-27T09:21:23.492Z,101142.63
2023-02-27T09:26:40.693Z,101140.28
2023-02-27T09:31:45.023Z,101143.19
2023-02-27T09:36:46.763Z,101144.94
2023-02-27T09:42:15.384Z,101141.19
2023-02-27T09:47:18.796Z,101142.03
2023-02-27T09:52:20.220Z,101161.50
2023-02-27T09:57:41.184Z,101148.06
2023-02-27T10:02:54.134Z,101152.69
2023-02-27T10:08:07.599Z,101155.25
2023-02-27T10:13:34.510Z,101157.53
2023-02-27T10:18:45.067Z,101163.81
2023-02-27T10:23:54.980Z,101163.41
2023-02-27T10:28:57.910Z,101163.00
2023-02-27T10:33:59.284Z,101164.28
2023-02-27T10:39:06.632Z,101165.72
2023-02-27T10:44:09.575Z,101169.13
2023-02-27T10:49:19.511Z,101171.03
2023-02-27T10:54:23.412Z,101165.63
2023-02-27T10:59:37.252Z,101164.28
2023-02-27T11:04:39.346Z,101160.25
2023-02-27T11:09:40.767Z,101157.94
2023-02-27T11:14:50.429Z,101152.13
2023-02-27T11:19:51.807Z,101152.53
2023-02-27T11:24:53.220Z,101155.00
2023-02-27T11:30:07.301Z,101150.97
2023-02-27T11:35:33.861Z,101152.25
2023-02-27T11:40:39.257Z,101142.63
2023-02-27T11:46:13.631Z,101137.50
2023-02-27T11:51:14.793Z,101141.19
2023-02-27T11:56:28.299Z,101132.22
2023-02-27T12:01:55.700Z,101121.50
2023-02-27T12:07:03.667Z,101116.28
2023-02-27T12:12:08.798Z,101118.34
2023-02-27T12:17:16.309Z,101121.47
2023-02-27T12:22:20.955Z,101125.50
2023-02-27T12:27:24.910Z,101115.91
2023-02-27T12:32:30.500Z,101121.72
2023-02-27T12:37:34.839Z,101111.75
2023-02-27T12:43:14.895Z,101121.63
2023-02-27T12:48:41.808Z,101116.78
2023-02-27T12:53:49.209Z,101115.56
2023-02-27T12:59:26.996Z,101115.94
2023-02-27T13:04:48.596Z,101118.84
2023-02-27T13:09:55.479Z,101108.59
2023-02-27T13:14:59.832Z,101107.59
2023-02-27T13:20:20.790Z,101108.19
2023-02-27T13:25:22.210Z,101105.78
2023-02-27T13:30:32.922Z,101103.22
2023-02-27T13:35:57.247Z,101106.00
2023-02-27T13:41:09.320Z,101111.59
2023-02-27T13:46:23.600Z,101110.63
2023-02-27T13:51:39.891Z,101103.81
2023-02-27T13:56:51.387Z,101113.41
2023-02-27T14:01:56.465Z,101114.09
2023-02-27T14:07:06.276Z,101112.81
2023-02-27T14:12:28.912Z,101118.66
2023-02-27T14:17:35.952Z,101124.31
2023-02-27T14:22:42.027Z,101118.69
2023-02-27T14:27:43.238Z,101112.81
2023-02-27T14:32:44.607Z,101114.25
2023-02-27T14:37:45.996Z,101120.31
2023-02-27T14:43:05.160Z,101127.31
2023-02-27T14:48:09.143Z,101120.97
2023-02-27T14:53:22.368Z,101126.97
2023-02-27T14:58:24.093Z,101121.88
2023-02-27T15:03:26.320Z,101136.31
2023-02-27T15:08:39.164Z,101139.97
2023-02-27T15:13:41.314Z,101146.22
2023-02-27T15:18:42.700Z,101147.94
2023-02-27T15:23:44.295Z,101149.50
2023-02-27T15:28:47.477Z,101158.78
2023-02-27T15:33:49.308Z,101169.28
2023-02-27T15:39:29.103Z,101170.41
2023-02-27T15:44:35.449Z,101177.28
2023-02-27T15:49:36.847Z,101177.66
2023-02-27T15:54:46.042Z,101184.38
2023-02-27T15:59:47.413Z,101185.72
2023-02-27T16:04:48.912Z,101181.56
2023-02-27T16:10:02.576Z,101187.69
2023-02-27T16:15:31.186Z,101196.34
2023-02-27T16:20:47.842Z,101205.69
2023-02-27T16:26:23.405Z,101198.81
2023-02-27T16:31:27.171Z,101213.53
2023-02-27T16:36:30.392Z,101216.44
2023-02-27T16:41:32.050Z,101215.59
2023-02-27T16:46:33.424Z,101221.75
2023-02-27T16:51:34.902Z,101220.91
2023-02-27T16:56:38.795Z,101226.53
2023-02-27T17:01:40.427Z,101228.66
2023-02-27T17:06:41.814Z,101237.31
2023-02-27T17:11:43.199Z,101240.28
2023-02-27T17:16:44.741Z,101243.25
2023-02-27T17:21:46.129Z,101247.00
2023-02-27T17:26:47.502Z,101251.41
2023-02-27T17:31:48.902Z,101246.59
2023-02-27T17:36:50.291Z,101253.31
2023-02-27T17:41:52.827Z,101258.75
2023-02-27T17:46:54.340Z,101252.47
2023-02-27T17:51:55.882Z,101258.38
2023-02-27T17:56:57.330Z,101263.41
2023-02-27T18:01:58.973Z,101259.84
2023-02-27T18:07:00.346Z,101263.19
2023-02-27T18:12:01.948Z,101267.38
2023-02-27T18:17:03.455Z,101267.63
2023-02-27T18:22:04.820Z,101266.16
2023-02-27T18:27:06.184Z,101264.47
2023-02-27T18:32:08.277Z,101260.69
2023-02-27T18:37:10.705Z,101266.78
2023-02-27T18:42:12.094Z,101266.34
2023-02-27T18:47:13.515Z,101267.19
2023-02-27T18:52:14.898Z,101260.44
2023-02-27T18:57:16.954Z,101267.00
2023-02-27T19:02:21.374Z,101271.00
2023-02-27T19:07:23.274Z,101271.38
2023-02-27T19:12:24.666Z,101275.16
2023-02-27T19:17:26.038Z,101271.19
2023-02-27T19:22:29.335Z,101277.94
2023-02-27T19:27:30.703Z,101279.81
2023-02-27T19:32:32.110Z,101274.34
2023-02-27T19:37:33.528Z,101281.06
2023-02-27T19:42:34.896Z,101284.25
2023-02-27T19:47:36.418Z,101290.34
2023-02-27T19:52:37.787Z,101290.34
2023-02-27T19:57:39.241Z,101289.06
2023-02-27T20:02:40.876Z,101297.91
2023-02-27T20:07:42.300Z,101294.97
2023-02-27T20:12:43.716Z,101297.91
2023-02-27T20:17:45.088Z,101292.00
2023-02-27T20:22:46.490Z,101299.16
2023-02-27T20:27:47.884Z,101303.16
2023-02-27T20:32:49.354Z,101296.41
2023-02-27T20:37:50.813Z,101297.25
2023-02-27T20:42:52.197Z,101300.84
2023-02-27T20:47:53.575Z,101298.34
2023-02-27T20:52:55.018Z,101306.97
2023-02-27T20:57:56.438Z,101307.56
2023-02-27T21:03:00.580Z,101301.69
2023-02-27T21:08:01.954Z,101299.38
2023-02-27T21:13:03.339Z,101309.28
2023-02-27T21:18:04.716Z,101302.53
2023-02-27T21:23:06.104Z,101301.69
2023-02-27T21:28:07.702Z,101306.72
2023-02-27T21:33:09.170Z,101318.94
2023-02-27T21:38:10.543Z,101306.53
2023-02-27T21:43:11.924Z,101309.66
2023-02-27T21:48:13.368Z,101305.66
2023-02-27T21:53:14.749Z,101314.31
2023-02-27T21:58:16.163Z,101315.97
2023-02-27T22:03:17.576Z,101315.34
2023-02-27T22:08:19.460Z,101317.25
2023-02-27T22:13:22.052Z,101314.94
2023-02-27T22:18:23.458Z,101314.94
2023-02-27T22:23:24.827Z,101326.91
2023-02-27T22:28:26.227Z,101324.78
2023-02-27T22:33:27.591Z,101321.44
2023-02-27T22:38:29.023Z,101324.59
2023-02-27T22:43:31.535Z,101321.25
2023-02-27T22:48:33.096Z,101323.56
2023-02-27T22:53:38.297Z,101325.88
2023-02-27T22:58:40.152Z,101320.41
2023-02-27T23:03:41.590Z,101313.25
2023-02-27T23:08:43.200Z,101309.66
2023-02-27T23:13:44.606Z,101316.81
2023-02-27T23:18:47.875Z,101325.25
2023-02-27T23:23:49.251Z,101323.78
2023-02-27T23:28:50.686Z,101325.44
2023-02-27T23:33:52.170Z,101329.66
2023-02-27T23:38:53.557Z,101338.28
2023-02-27T23:44:13.338Z,101339.97
2023-02-27T23:49:14.720Z,101337.66
2023-02-27T23:54:16.110Z,101329.03
2023-02-27T23:59:17.514Z,101326.06
